Time;durP1;ratioP1;P1;durP2;ratioP2;P2;SDS_P1;SDS_P2;PMS_P1;PMS_P2;Temp;Humidity;BMP_temperature;BMP_pressure;BME280_temperature;BME280_humidity;BME280_pressure;Samples;Min_cycle;Max_cycle;Signal;HPM_P1;HPM_P2
2023/05/10 00:01:47;;;;;;;6.40;4.78;;;13.70;99.90;;;;;;5013771;28;20045;-54
2023/05/10 00:04:13;;;;;;;6.75;5.10;;;13.70;99.90;;;;;;5013409;28;20404;-54
2023/05/10 00:06:38;;;;;;;6.47;5.55;;;13.70;99.90;;;;;;5013913;28;20045;-54
2023/05/10 00:09:04;;;;;;;6.63;5.15;;;13.70;99.90;;;;;;5013945;28;20038;-55
2023/05/10 00:11:30;;;;;;;8.57;5.57;;;13.50;99.90;;;;;;5013692;28;20045;-53
2023/05/10 00:13:55;;;;;;;6.28;5.68;;;13.50;99.90;;;;;;5014011;28;20048;-54
2023/05/10 00:16:21;;;;;;;8.32;6.60;;;13.40;99.90;;;;;;5014130;28;20123;-54
2023/05/10 00:18:46;;;;;;;7.80;7.00;;;13.40;99.90;;;;;;5014024;28;20054;-54
2023/05/10 00:21:12;;;;;;;13.02;6.70;;;13.30;99.90;;;;;;5014092;28;20049;-54
2023/05/10 00:23:38;;;;;;;7.95;6.72;;;13.30;99.90;;;;;;5013693;28;20492;-54
2023/05/10 00:26:03;;;;;;;7.90;7.10;;;13.30;99.90;;;;;;5013808;28;20511;-54
2023/05/10 00:28:29;;;;;;;7.80;7.00;;;13.20;99.90;;;;;;5013642;28;20041;-52
2023/05/10 00:30:55;;;;;;;7.47;6.15;;;13.10;99.90;;;;;;5013364;28;20546;-54
2023/05/10 00:33:21;;;;;;;7.47;6.40;;;13.10;99.90;;;;;;5013449;28;20052;-53
2023/05/10 00:35:46;;;;;;;8.10;6.72;;;13.10;99.90;;;;;;5013778;28;20065;-53
2023/05/10 00:38:12;;;;;;;6.80;6.07;;;13.00;99.90;;;;;;5013548;28;20045;-53
2023/05/10 00:40:38;;;;;;;7.30;6.53;;;13.10;99.90;;;;;;5013581;28;20121;-53
2023/05/10 00:43:04;;;;;;;7.22;5.82;;;13.30;99.90;;;;;;5013314;28;20369;-54
2023/05/10 00:45:34;;;;;;;7.35;6.28;;;12.80;99.90;;;;;;5013473;28;20121;-54
2023/05/10 00:48:03;;;;;;;7.15;6.32;;;12.90;99.90;;;;;;5013408;28;20044;-54
2023/05/10 00:50:30;;;;;;;7.47;6.55;;;12.90;99.90;;;;;;5013346;28;20074;-53
2023/05/10 00:52:57;;;;;;;7.38;6.60;;;13.10;99.90;;;;;;5013131;28;20404;-53
2023/05/10 00:55:23;;;;;;;7.38;6.50;;;12.80;99.90;;;;;;5026257;28;20045;-54
2023/05/10 00:57:49;;;;;;;7.88;6.13;;;12.80;99.90;;;;;;5032764;28;20041;-53
2023/05/10 01:00:18;;;;;;;8.82;6.78;;;12.80;99.90;;;;;;5032609;28;20038;-53
2023/05/10 01:02:47;;;;;;;7.95;6.32;;;12.80;99.90;;;;;;5032856;28;20048;-53
2023/05/10 01:05:13;;;;;;;13.13;7.70;;;12.80;99.90;;;;;;5032481;28;20072;-54
2023/05/10 01:07:39;;;;;;;8.90;6.85;;;12.80;99.90;;;;;;5032513;28;20464;-54
2023/05/10 01:10:09;;;;;;;8.85;7.95;;;12.70;99.90;;;;;;5026610;28;20117;-52
2023/05/10 01:12:38;;;;;;;11.07;7.43;;;12.80;99.90;;;;;;5012659;28;20050;-53
2023/05/10 01:15:08;;;;;;;10.13;7.30;;;12.70;99.90;;;;;;5012612;28;20084;-53
2023/05/10 01:17:36;;;;;;;10.75;7.82;;;12.70;99.90;;;;;;5012305;28;20414;-52
2023/05/10 01:20:02;;;;;;;12.25;8.30;;;12.70;99.90;;;;;;5012351;28;20108;-52
2023/05/10 01:22:56;;;;;;;10.27;8.30;;;12.70;99.90;;;;;;5012151;28;20840;-53
2023/05/10 01:25:41;;;;;;;10.07;7.85;;;12.70;99.90;;;;;;5012004;28;20868;-54
2023/05/10 01:28:35;;;;;;;9.45;7.72;;;12.80;99.90;;;;;;5012381;28;20058;-53
2023/05/10 01:31:20;;;;;;;9.70;8.23;;;12.70;99.90;;;;;;5012304;28;20107;-54
2023/05/10 01:34:11;;;;;;;10.70;7.70;;;12.70;99.90;;;;;;5011888;28;20518;-54
2023/05/10 01:36:51;;;;;;;11.70;8.50;;;12.70;99.90;;;;;;5012333;28;20049;-53
2023/05/10 01:39:39;;;;;;;9.70;7.55;;;12.70;99.90;;;;;;5011891;28;20273;-54
2023/05/10 01:42:11;;;;;;;8.93;7.07;;;12.70;99.90;;;;;;5011360;28;20041;-53
2023/05/10 01:44:55;;;;;;;9.10;7.47;;;12.70;99.90;;;;;;5012007;28;20136;-54
2023/05/10 01:47:33;;;;;;;9.43;6.95;;;12.70;99.90;;;;;;5011834;28;20396;-54
2023/05/10 01:50:03;;;;;;;9.95;7.65;;;12.70;99.90;;;;;;5011823;28;20037;-54
2023/05/10 01:52:36;;;;;;;9.05;7.10;;;12.60;99.90;;;;;;5011526;28;20034;-53
2023/05/10 01:55:06;;;;;;;10.38;7.28;;;12.80;99.90;;;;;;5011850;28;20107;-53
2023/05/10 01:57:36;;;;;;;9.65;6.88;;;12.70;99.90;;;;;;5011676;28;20044;-52
2023/05/10 02:00:04;;;;;;;9.45;7.03;;;12.60;99.90;;;;;;5011945;28;20042;-53
2023/05/10 02:02:33;;;;;;;9.43;7.63;;;12.70;99.90;;;;;;5010155;28;20408;-53
2023/05/10 02:04:59;;;;;;;10.48;7.88;;;12.70;99.90;;;;;;5011262;28;20508;-52
2023/05/10 02:07:28;;;;;;;8.48;6.47;;;12.70;99.90;;;;;;5010338;28;20503;-54
2023/05/10 02:09:56;;;;;;;10.45;7.82;;;12.60;99.90;;;;;;5007601;28;20109;-52
2023/05/10 02:12:23;;;;;;;9.27;6.65;;;12.80;99.90;;;;;;4990890;28;20070;-53
2023/05/10 02:14:50;;;;;;;9.43;7.25;;;12.60;99.90;;;;;;4992138;28;20046;-53
2023/05/10 02:17:17;;;;;;;12.88;7.65;;;12.60;99.90;;;;;;4991989;28;20046;-53
2023/05/10 02:19:45;;;;;;;9.60;7.43;;;12.60;99.90;;;;;;4991584;28;20201;-53
2023/05/10 02:22:12;;;;;;;11.70;7.55;;;12.50;99.90;;;;;;4991826;28;20070;-54
2023/05/10 02:24:39;;;;;;;10.75;8.00;;;13.00;99.90;;;;;;4991277;28;20070;-52
2023/05/10 02:27:06;;;;;;;10.85;7.22;;;12.60;99.90;;;;;;4991655;28;20046;-52
2023/05/10 02:29:32;;;;;;;10.45;7.85;;;12.50;99.90;;;;;;4991540;28;20042;-53
2023/05/10 02:31:59;;;;;;;10.55;8.30;;;12.70;99.90;;;;;;4991678;28;20414;-53
2023/05/10 02:34:29;;;;;;;11.30;7.80;;;12.60;99.90;;;;;;4991637;28;20052;-53
2023/05/10 02:36:56;;;;;;;11.13;7.20;;;12.70;99.90;;;;;;4991943;28;20033;-53
2023/05/10 02:39:23;;;;;;;11.13;8.00;;;12.50;99.90;;;;;;4991638;28;20042;-53
2023/05/10 02:41:52;;;;;;;11.18;7.47;;;12.50;99.90;;;;;;4990553;28;20050;-52
2023/05/10 02:44:19;;;;;;;10.77;7.55;;;12.60;99.90;;;;;;4991609;28;20121;-53
2023/05/10 02:46:46;;;;;;;11.73;8.15;;;12.50;99.90;;;;;;4991447;28;20042;-53
2023/05/10 02:49:12;;;;;;;10.77;7.68;;;12.50;99.90;;;;;;4991380;28;20042;-52
2023/05/10 02:51:48;;;;;;;10.93;7.63;;;12.40;99.90;;;;;;4991330;28;20045;-54
2023/05/10 02:54:20;;;;;;;10.68;7.50;;;12.70;99.90;;;;;;4990568;28;20097;-52
2023/05/10 02:56:57;;;;;;;11.25;8.10;;;12.40;99.90;;;;;;4991157;28;20112;-52
2023/05/10 02:59:23;;;;;;;10.90;7.78;;;12.40;99.90;;;;;;4991053;28;20481;-52
2023/05/10 03:01:49;;;;;;;11.57;7.57;;;12.40;99.90;;;;;;4991210;28;20117;-53
2023/05/10 03:04:14;;;;;;;11.85;8.15;;;12.60;99.90;;;;;;4990912;28;20412;-53
2023/05/10 03:06:41;;;;;;;11.52;7.93;;;12.50;99.90;;;;;;4991152;28;20046;-53
2023/05/10 03:09:09;;;;;;;11.15;7.72;;;12.40;99.90;;;;;;4991209;28;20045;-54
2023/05/10 03:12:08;;;;;;;12.25;7.93;;;12.80;99.90;;;;;;4990892;28;20433;-52
2023/05/10 03:14:56;;;;;;;11.43;8.18;;;12.30;99.90;;;;;;4991181;28;20149;-52
2023/05/10 03:17:35;;;;;;;12.10;8.00;;;12.30;99.90;;;;;;4991156;28;20054;-53
2023/05/10 03:20:09;;;;;;;13.13;8.13;;;12.30;99.90;;;;;;4991028;28;20851;-53
2023/05/10 03:22:44;;;;;;;11.57;8.48;;;12.30;99.90;;;;;;4991132;28;20046;-54
2023/05/10 03:25:12;;;;;;;10.88;7.82;;;12.60;99.90;;;;;;4990584;28;20583;-53
2023/05/10 03:27:41;;;;;;;12.25;8.23;;;12.70;99.90;;;;;;4990851;28;20050;-53
2023/05/10 03:30:10;;;;;;;11.63;8.18;;;13.10;99.90;;;;;;5006007;28;20053;-53
2023/05/10 03:32:36;;;;;;;13.45;9.50;;;12.40;99.90;;;;;;4991136;28;20046;-53
2023/05/10 03:35:10;;;;;;;11.98;8.35;;;12.40;99.90;;;;;;4990599;28;20500;-51
2023/05/10 03:37:35;;;;;;;12.60;9.05;;;12.40;99.90;;;;;;4990748;28;20050;-53
2023/05/10 03:40:02;;;;;;;11.50;8.52;;;12.50;99.90;;;;;;4990893;28;20042;-53
2023/05/10 03:42:28;;;;;;;12.60;7.75;;;12.40;99.90;;;;;;4990944;28;20049;-51
2023/05/10 03:44:53;;;;;;;12.43;8.60;;;12.50;99.90;;;;;;4990505;28;20401;-53
2023/05/10 03:47:19;;;;;;;11.05;8.07;;;12.30;99.90;;;;;;4990920;28;20385;-52
2023/05/10 03:49:45;;;;;;;12.30;8.52;;;12.70;99.90;;;;;;4990699;28;20507;-52
2023/05/10 03:52:11;;;;;;;13.27;8.65;;;12.50;99.90;;;;;;4991008;28;20042;-51
2023/05/10 03:54:37;;;;;;;12.10;9.05;;;13.20;99.90;;;;;;5005693;28;20051;-52
2023/05/10 03:57:03;;;;;;;15.23;9.02;;;12.50;99.90;;;;;;4990998;28;20049;-52
2023/05/10 03:59:29;;;;;;;14.30;9.10;;;12.60;99.90;;;;;;4990762;28;20035;-53
2023/05/10 04:01:55;;;;;;;11.90;8.90;;;12.30;99.90;;;;;;4990857;28;20492;-52
2023/05/10 04:04:21;;;;;;;12.55;8.60;;;12.50;99.90;;;;;;4990616;28;20418;-52
2023/05/10 04:06:47;;;;;;;13.65;8.63;;;12.50;99.90;;;;;;4994191;28;20544;-53
2023/05/10 04:09:13;;;;;;;14.00;9.32;;;12.70;99.90;;;;;;4994328;28;20047;-53
2023/05/10 04:11:39;;;;;;;13.85;9.52;;;12.60;99.90;;;;;;5012499;28;20476;-52
2023/05/10 04:14:04;;;;;;;11.32;8.68;;;12.50;99.90;;;;;;5013346;28;20069;-53
2023/05/10 04:16:30;;;;;;;12.00;9.13;;;12.50;99.90;;;;;;5013552;28;20135;-52
2023/05/10 04:18:56;;;;;;;13.95;9.35;;;12.50;99.90;;;;;;5013598;28;20042;-52
2023/05/10 04:21:22;;;;;;;11.65;8.73;;;12.50;99.90;;;;;;5013520;28;20095;-54
2023/05/10 04:23:47;;;;;;;12.55;8.95;;;12.50;99.90;;;;;;5013345;28;20062;-53
2023/05/10 04:26:13;;;;;;;12.48;8.73;;;12.50;99.90;;;;;;5013436;28;20049;-50
2023/05/10 04:28:39;;;;;;;9.85;8.07;;;12.30;99.90;;;;;;5013193;28;20038;-53
2023/05/10 04:31:09;;;;;;;11.93;8.70;;;12.50;99.90;;;;;;5013358;28;20049;-53
2023/05/10 04:33:35;;;;;;;11.43;7.90;;;12.60;99.90;;;;;;5013360;28;20064;-53
2023/05/10 04:36:02;;;;;;;9.52;7.55;;;12.40;99.90;;;;;;5013186;28;20101;-52
2023/05/10 04:38:28;;;;;;;9.35;7.28;;;12.30;99.90;;;;;;5013038;28;20045;-52
2023/05/10 04:40:54;;;;;;;9.52;7.55;;;12.30;99.90;;;;;;5013031;28;20053;-53
2023/05/10 04:43:20;;;;;;;10.77;7.10;;;12.90;99.90;;;;;;5012999;28;20046;-53
2023/05/10 04:45:46;;;;;;;9.93;7.57;;;12.20;99.90;;;;;;5013006;28;20038;-52
2023/05/10 04:48:12;;;;;;;10.35;7.05;;;12.50;99.90;;;;;;5013044;28;20048;-53
2023/05/10 04:50:38;;;;;;;9.13;7.05;;;12.30;99.90;;;;;;5012814;28;20041;-51
2023/05/10 04:53:04;;;;;;;7.85;6.45;;;12.30;99.90;;;;;;5012809;28;20129;-52
2023/05/10 04:55:30;;;;;;;8.52;6.30;;;12.30;99.90;;;;;;5012759;28;20124;-52
2023/05/10 04:57:57;;;;;;;9.95;7.13;;;12.20;99.90;;;;;;5013035;28;20131;-53
2023/05/10 05:00:23;;;;;;;10.98;6.60;;;12.30;99.90;;;;;;5012960;28;20099;-53
2023/05/10 05:02:49;;;;;;;12.45;6.32;;;12.50;99.90;;;;;;5012739;28;20465;-51
2023/05/10 05:05:15;;;;;;;9.75;5.47;;;12.20;99.90;;;;;;5012477;28;20057;-51
2023/05/10 05:07:40;;;;;;;9.10;6.70;;;12.30;99.90;;;;;;5012865;28;20042;-53
2023/05/10 05:10:07;;;;;;;7.47;5.50;;;12.50;99.90;;;;;;5006636;28;20109;-53
2023/05/10 05:12:33;;;;;;;8.48;6.03;;;12.30;99.90;;;;;;4993117;28;20373;-49
2023/05/10 05:14:59;;;;;;;7.95;6.10;;;12.30;99.90;;;;;;4993326;28;20038;-52
2023/05/10 05:17:25;;;;;;;9.32;5.93;;;12.50;99.90;;;;;;4992214;28;20138;-53
2023/05/10 05:19:50;;;;;;;7.78;5.20;;;12.30;99.90;;;;;;4999833;28;20052;-53
2023/05/10 05:22:16;;;;;;;8.68;6.18;;;12.30;99.90;;;;;;5011343;28;20407;-53
2023/05/10 05:24:42;;;;;;;8.40;6.00;;;12.30;99.90;;;;;;5011951;28;20057;-52
2023/05/10 05:27:07;;;;;;;7.28;5.75;;;12.30;99.90;;;;;;5011991;28;20046;-53
2023/05/10 05:29:33;;;;;;;7.07;5.95;;;12.30;99.90;;;;;;5012351;28;20480;-53
2023/05/10 05:31:59;;;;;;;6.55;5.13;;;12.30;99.90;;;;;;5012323;28;20049;-52
2023/05/10 05:34:25;;;;;;;9.32;5.70;;;12.30;99.90;;;;;;5012046;28;20099;-52
2023/05/10 05:36:51;;;;;;;6.45;4.97;;;12.30;99.90;;;;;;5012088;28;20049;-53
2023/05/10 05:39:17;;;;;;;6.75;4.93;;;12.30;99.90;;;;;;5012035;28;20496;-53
2023/05/10 05:41:43;;;;;;;6.72;4.78;;;12.20;99.90;;;;;;5011564;28;20068;-53
2023/05/10 05:44:09;;;;;;;6.88;5.13;;;12.20;99.90;;;;;;5012029;28;20045;-53
2023/05/10 05:46:35;;;;;;;5.68;4.53;;;12.20;99.90;;;;;;5011697;28;20519;-52
2023/05/10 05:49:01;;;;;;;6.10;4.30;;;12.20;99.90;;;;;;5011776;28;20038;-50
2023/05/10 05:51:27;;;;;;;5.82;4.10;;;12.20;99.90;;;;;;5011702;28;20050;-53
2023/05/10 05:53:52;;;;;;;4.95;3.70;;;12.50;99.90;;;;;;5012014;28;20039;-52
2023/05/10 05:56:23;;;;;;;4.85;3.63;;;12.60;99.90;;;;;;5011545;28;20042;-52
2023/05/10 05:58:50;;;;;;;8.38;4.15;;;12.20;99.90;;;;;;5011764;28;20053;-53
2023/05/10 06:01:16;;;;;;;5.47;3.97;;;12.30;99.90;;;;;;5011658;28;20435;-52
2023/05/10 06:03:42;;;;;;;5.15;3.85;;;12.30;99.90;;;;;;5011516;28;20404;-53
2023/05/10 06:06:07;;;;;;;4.80;3.80;;;12.60;99.90;;;;;;5011477;28;20046;-52
2023/05/10 06:08:33;;;;;;;6.05;3.75;;;12.20;99.90;;;;;;5011111;28;20048;-53
2023/05/10 06:11:00;;;;;;;4.50;3.80;;;12.20;99.90;;;;;;5003775;28;20128;-52
2023/05/10 06:13:31;;;;;;;7.35;3.85;;;12.40;99.90;;;;;;4995075;28;20104;-53
2023/05/10 06:15:58;;;;;;;3.55;2.72;;;12.40;99.90;;;;;;5011138;28;20810;-53
2023/05/10 06:18:24;;;;;;;4.25;3.33;;;12.20;99.90;;;;;;5002454;28;20035;-52
2023/05/10 06:20:50;;;;;;;4.05;3.28;;;12.40;99.90;;;;;;4991660;28;20117;-52
2023/05/10 06:23:16;;;;;;;4.00;3.45;;;12.20;99.90;;;;;;4991545;28;20030;-53
2023/05/10 06:25:41;;;;;;;4.75;3.33;;;12.30;99.90;;;;;;4989809;28;20093;-53
2023/05/10 06:28:07;;;;;;;3.97;3.10;;;12.20;99.90;;;;;;5009865;28;20088;-52
2023/05/10 06:30:33;;;;;;;3.92;2.80;;;12.20;99.90;;;;;;5009361;28;20041;-52
2023/05/10 06:32:59;;;;;;;4.07;3.03;;;12.60;99.90;;;;;;5011055;28;20399;-52
2023/05/10 06:35:24;;;;;;;3.55;2.28;;;12.20;99.90;;;;;;5010801;28;20038;-53
2023/05/10 06:37:51;;;;;;;2.80;2.08;;;12.20;99.90;;;;;;5010744;28;20674;-53
2023/05/10 06:40:17;;;;;;;2.85;2.00;;;12.90;99.90;;;;;;5010889;28;20140;-51
2023/05/10 06:42:44;;;;;;;3.65;2.42;;;12.20;99.90;;;;;;5010700;28;20571;-52
2023/05/10 06:45:10;;;;;;;2.95;2.05;;;12.30;99.90;;;;;;4992078;28;20089;-53
2023/05/10 06:47:36;;;;;;;3.20;1.80;;;12.30;99.90;;;;;;4991035;28;20065;-52
2023/05/10 06:50:02;;;;;;;2.80;2.10;;;12.50;99.90;;;;;;4990902;28;20042;-53
2023/05/10 06:52:28;;;;;;;2.40;1.80;;;12.30;99.90;;;;;;4990610;28;20129;-53
2023/05/10 06:54:53;;;;;;;3.35;2.15;;;12.30;99.90;;;;;;4990802;28;20124;-53
2023/05/10 06:57:20;;;;;;;2.35;1.70;;;12.30;99.90;;;;;;4990705;28;20477;-52
2023/05/10 06:59:46;;;;;;;2.20;1.40;;;12.70;99.90;;;;;;4990943;28;20128;-53
2023/05/10 07:02:12;;;;;;;3.00;1.70;;;12.40;99.90;;;;;;4991081;28;20042;-53
2023/05/10 07:04:37;;;;;;;1.92;1.33;;;12.30;99.90;;;;;;4990088;28;20058;-53
2023/05/10 07:07:03;;;;;;;2.25;1.15;;;12.30;99.90;;;;;;4990858;28;20034;-53
2023/05/10 07:09:29;;;;;;;2.13;1.10;;;12.40;99.90;;;;;;4990432;28;20491;-53
2023/05/10 07:11:57;;;;;;;1.20;0.73;;;12.30;99.90;;;;;;4990771;28;20046;-53
2023/05/10 07:14:22;;;;;;;0.70;0.30;;;12.70;99.90;;;;;;4990949;28;20100;-53
2023/05/10 07:16:48;;;;;;;0.40;0.20;;;12.40;99.90;;;;;;4990811;28;20709;-52
2023/05/10 07:19:14;;;;;;;0.40;0.20;;;12.40;99.90;;;;;;5008391;28;20068;-53
2023/05/10 07:21:42;;;;;;;1.13;0.20;;;12.40;99.90;;;;;;5009997;28;20081;-52
2023/05/10 07:24:08;;;;;;;0.50;0.10;;;12.80;99.90;;;;;;5010023;28;20057;-53
2023/05/10 07:26:33;;;;;;;1.33;0.10;;;12.60;99.90;;;;;;5010347;28;20050;-51
2023/05/10 07:28:59;;;;;;;0.50;0.10;;;12.50;99.90;;;;;;5010349;28;20468;-52
2023/05/10 07:31:25;;;;;;;0.17;0.10;;;12.50;99.90;;;;;;5009937;28;20070;-53
2023/05/10 07:33:50;;;;;;;0.10;0.00;;;12.70;99.90;;;;;;5009924;28;20039;-52
2023/05/10 07:36:16;;;;;;;0.00;0.00;;;12.70;99.90;;;;;;5009880;28;20052;-51
2023/05/10 07:38:41;;;;;;;0.20;0.00;;;12.90;99.90;;;;;;5010103;28;20061;-51
2023/05/10 07:41:07;;;;;;;0.10;0.00;;;12.50;99.90;;;;;;5012822;28;20053;-52
2023/05/10 07:43:33;;;;;;;0.00;0.00;;;12.60;99.90;;;;;;5013998;28;20045;-51
2023/05/10 07:45:59;;;;;;;1.17;0.30;;;12.60;99.90;;;;;;4989097;28;20183;-49
2023/05/10 07:48:25;;;;;;;0.20;0.00;;;12.60;99.90;;;;;;4993955;28;20112;-53
2023/05/10 07:50:51;;;;;;;1.08;0.00;;;12.90;99.90;;;;;;4999056;28;20038;-52
2023/05/10 07:53:18;;;;;;;0.08;0.00;;;12.80;99.90;;;;;;5002074;28;20045;-49
2023/05/10 07:55:44;;;;;;;0.08;0.00;;;12.90;99.90;;;;;;5006256;28;20392;-47
2023/05/10 07:58:09;;;;;;;0.08;0.00;;;12.70;99.90;;;;;;5000103;28;20037;-51
2023/05/10 08:00:35;;;;;;;0.10;0.00;;;13.10;99.90;;;;;;5006443;28;20042;-50
2023/05/10 08:03:01;;;;;;;0.65;0.32;;;12.80;99.90;;;;;;5005508;28;20461;-47
2023/05/10 08:05:26;;;;;;;0.00;0.00;;;12.90;99.90;;;;;;5004894;28;20100;-51
2023/05/10 08:07:52;;;;;;;0.88;0.00;;;12.90;99.90;;;;;;5004609;28;20438;-48
2023/05/10 08:10:18;;;;;;;0.30;0.10;;;13.30;99.90;;;;;;5004202;28;20045;-51
2023/05/10 08:12:43;;;;;;;0.20;0.10;;;13.00;99.90;;;;;;5002666;28;20036;-50
2023/05/10 08:15:09;;;;;;;0.10;0.10;;;13.20;99.90;;;;;;4999273;28;20033;-48
2023/05/10 08:17:35;;;;;;;0.28;0.10;;;13.10;99.90;;;;;;5005531;28;20077;-52
2023/05/10 08:20:01;;;;;;;1.65;0.15;;;13.10;99.90;;;;;;5003963;28;20112;-48
2023/05/10 08:22:27;;;;;;;0.57;0.30;;;13.50;99.90;;;;;;5003712;28;20120;-47
2023/05/10 08:24:52;;;;;;;0.98;0.55;;;13.70;99.90;;;;;;5005635;28;20044;-53
2023/05/10 08:27:18;;;;;;;1.45;0.77;;;13.30;99.90;;;;;;5006186;28;20439;-49
2023/05/10 08:29:44;;;;;;;1.85;0.90;;;13.10;99.90;;;;;;5005671;28;20030;-49
2023/05/10 08:32:09;;;;;;;1.95;1.17;;;13.00;99.90;;;;;;5005803;28;20029;-52
2023/05/10 08:34:35;;;;;;;2.17;1.40;;;13.30;99.90;;;;;;5005461;28;20057;-53
2023/05/10 08:37:01;;;;;;;2.13;1.55;;;13.00;99.90;;;;;;5006073;28;20044;-54
2023/05/10 08:39:27;;;;;;;2.55;1.33;;;12.90;99.90;;;;;;5005374;28;20041;-55
2023/05/10 08:41:57;;;;;;;4.13;2.22;;;12.80;99.90;;;;;;5005188;28;20687;-47
2023/05/10 08:44:23;;;;;;;4.45;2.53;;;13.00;99.90;;;;;;5005404;28;20050;-52
2023/05/10 08:46:54;;;;;;;3.80;2.80;;;12.90;99.90;;;;;;4978960;28;20081;-46
2023/05/10 08:49:20;;;;;;;3.10;2.38;;;13.10;99.90;;;;;;4998808;28;20034;-47
2023/05/10 08:51:57;;;;;;;3.25;2.67;;;13.00;99.90;;;;;;5005636;28;20034;-54
2023/05/10 08:54:24;;;;;;;3.63;2.72;;;13.00;99.90;;;;;;5005278;28;20374;-56
2023/05/10 08:56:50;;;;;;;3.63;2.67;;;13.00;99.90;;;;;;5005320;28;20045;-54
2023/05/10 08:59:16;;;;;;;3.40;2.35;;;13.00;99.90;;;;;;4999616;28;20053;-56
2023/05/10 09:01:44;;;;;;;3.65;3.05;;;13.00;99.90;;;;;;5009644;28;20061;-53
2023/05/10 09:04:11;;;;;;;3.30;2.63;;;13.00;99.90;;;;;;5005390;28;20080;-46
2023/05/10 09:06:38;;;;;;;3.97;3.00;;;13.00;99.90;;;;;;5005175;28;20045;-47
2023/05/10 09:09:03;;;;;;;4.03;3.08;;;12.90;99.90;;;;;;5004072;28;20030;-47
2023/05/10 09:11:29;;;;;;;4.22;3.38;;;13.30;99.90;;;;;;5005339;28;20769;-46
2023/05/10 09:13:56;;;;;;;5.18;3.88;;;13.20;99.90;;;;;;4983637;28;20837;-46
2023/05/10 09:16:22;;;;;;;4.47;2.95;;;13.20;99.90;;;;;;4987523;28;20042;-49
2023/05/10 09:18:49;;;;;;;3.88;3.20;;;13.10;99.90;;;;;;4977827;28;20058;-53
2023/05/10 09:21:15;;;;;;;3.58;2.58;;;13.30;99.90;;;;;;4982419;28;20030;-48
2023/05/10 09:23:46;;;;;;;5.15;2.85;;;13.20;99.90;;;;;;4999038;28;20783;-55
2023/05/10 09:26:12;;;;;;;3.55;2.92;;;13.10;99.90;;;;;;4963826;28;20180;-56
2023/05/10 09:28:51;;;;;;;3.35;2.70;;;13.20;99.90;;;;;;4970766;28;21996;-51
2023/05/10 09:31:17;;;;;;;3.28;2.55;;;13.30;99.90;;;;;;4971821;28;20946;-44
2023/05/10 09:33:49;;;;;;;3.47;2.53;;;13.10;99.90;;;;;;4984906;28;20058;-46
2023/05/10 09:36:16;;;;;;;14.57;4.40;;;13.10;99.90;;;;;;4985981;28;20077;-48
2023/05/10 09:38:53;;;;;;;5.50;3.53;;;13.20;99.90;;;;;;4998658;28;20123;-47
2023/05/10 09:41:23;;;;;;;4.72;3.33;;;13.60;99.90;;;;;;4999254;28;20087;-48
2023/05/10 09:43:49;;;;;;;4.45;3.50;;;13.40;99.90;;;;;;4998217;28;20065;-50
2023/05/10 09:46:16;;;;;;;3.35;2.47;;;13.50;99.90;;;;;;4998788;28;20476;-52
2023/05/10 09:48:47;;;;;;;3.80;2.83;;;13.60;99.90;;;;;;4999749;28;20038;-49
2023/05/10 09:51:26;;;;;;;3.90;2.97;;;13.50;99.90;;;;;;4999032;28;20101;-49
2023/05/10 09:54:12;;;;;;;5.10;3.30;;;13.60;99.90;;;;;;4999403;28;20567;-50
2023/05/10 09:56:40;;;;;;;6.97;3.83;;;13.60;99.90;;;;;;4998580;28;20473;-49
2023/05/10 09:59:08;;;;;;;5.25;3.92;;;13.70;99.90;;;;;;4998737;28;20099;-48
2023/05/10 10:01:34;;;;;;;4.82;3.25;;;13.90;99.90;;;;;;4999288;28;20088;-50
2023/05/10 10:04:04;;;;;;;4.20;3.00;;;14.10;99.90;;;;;;4998662;28;20541;-51
2023/05/10 10:06:38;;;;;;;3.20;2.42;;;14.00;99.90;;;;;;4998732;28;20045;-51
2023/05/10 10:09:05;;;;;;;5.13;2.85;;;14.20;99.90;;;;;;4999665;28;20033;-49
2023/05/10 10:11:31;;;;;;;5.50;2.28;;;15.10;99.90;;;;;;4999330;28;20065;-52
2023/05/10 10:13:57;;;;;;;2.70;1.80;;;14.30;99.90;;;;;;4997632;28;20176;-51
2023/05/10 10:16:23;;;;;;;3.22;2.10;;;14.20;99.90;;;;;;4998500;28;20132;-51
2023/05/10 10:18:49;;;;;;;3.63;1.73;;;14.20;99.90;;;;;;4997374;28;20517;-51
2023/05/10 10:21:15;;;;;;;2.80;2.38;;;14.30;99.90;;;;;;4999043;28;20049;-51
2023/05/10 10:23:41;;;;;;;3.17;1.80;;;14.20;99.90;;;;;;4998573;28;20068;-52
2023/05/10 10:26:07;;;;;;;4.22;2.13;;;14.20;99.90;;;;;;4998713;28;20137;-49
2023/05/10 10:28:42;;;;;;;3.53;1.95;;;14.20;99.90;;;;;;4999276;28;20744;-50
2023/05/10 10:31:36;;;;;;;3.33;2.50;;;14.20;99.90;;;;;;4998162;28;20058;-56
2023/05/10 10:34:08;;;;;;;3.42;2.85;;;14.20;99.90;;;;;;5000371;28;20033;-48
2023/05/10 10:36:40;;;;;;;;;;;14.60;99.90;;;;;;4999558;28;20042;-48
2023/05/10 10:39:09;;;;;;;;;;;14.50;99.90;;;;;;4999158;28;20398;-52
2023/05/10 10:41:36;;;;;;;3.95;2.67;;;14.60;99.90;;;;;;5000097;28;20419;-49
2023/05/10 10:44:27;;;;;;;4.13;2.55;;;14.70;99.90;;;;;;4999166;28;20053;-51
2023/05/10 10:47:23;;;;;;;5.00;2.45;;;14.80;99.90;;;;;;4997493;28;20074;-52
2023/05/10 10:49:51;;;;;;;4.30;2.58;;;14.70;99.90;;;;;;4997288;28;20052;-49
2023/05/10 10:52:20;;;;;;;4.07;2.60;;;14.70;99.90;;;;;;4999486;28;20033;-50
2023/05/10 10:55:09;;;;;;;4.63;3.22;;;14.60;99.90;;;;;;4997110;28;20399;-49
2023/05/10 10:57:45;;;;;;;5.35;3.17;;;14.50;99.90;;;;;;4998782;28;20395;-51
2023/05/10 11:00:29;;;;;;;5.00;4.03;;;14.40;99.90;;;;;;4998900;28;20569;-51
2023/05/10 11:03:18;;;;;;;5.85;3.70;;;14.40;99.90;;;;;;4997719;28;20755;-50
2023/05/10 11:05:45;;;;;;;5.30;3.85;;;14.30;99.90;;;;;;4998349;28;20056;-52
2023/05/10 11:08:18;;;;;;;4.57;3.25;;;14.30;99.90;;;;;;4999049;28;20068;-47
2023/05/10 11:11:08;;;;;;;4.72;3.67;;;14.30;99.90;;;;;;4998889;28;20091;-50
2023/05/10 11:13:44;;;;;;;5.65;3.55;;;14.20;99.90;;;;;;4997806;28;20042;-51
2023/05/10 11:16:26;;;;;;;6.50;3.88;;;14.20;99.90;;;;;;5001634;28;20034;-49
2023/05/10 11:18:58;;;;;;;;;;;14.10;99.90;;;;;;5004395;28;20174;-50
2023/05/10 11:21:23;;;;;;;5.72;3.70;;;14.10;99.90;;;;;;5002097;28;19921;-51
2023/05/10 11:23:51;;;;;;;5.43;3.85;;;14.00;99.90;;;;;;5001437;28;20057;-51
2023/05/10 11:26:18;;;;;;;5.38;3.97;;;14.00;99.90;;;;;;5001980;28;20081;-52
2023/05/10 11:28:44;;;;;;;6.97;5.05;;;14.00;99.90;;;;;;5001665;28;20043;-52
2023/05/10 11:31:10;;;;;;;8.57;5.15;;;14.00;99.90;;;;;;5001437;28;20042;-51
2023/05/10 11:33:46;;;;;;;5.55;4.18;;;14.00;99.90;;;;;;5002346;28;20415;-50
2023/05/10 11:36:16;;;;;;;9.40;4.97;;;14.10;99.90;;;;;;5001784;28;20435;-51
2023/05/10 11:38:42;;;;;;;6.03;4.65;;;14.10;99.90;;;;;;5002163;28;20041;-50
2023/05/10 11:41:09;;;;;;;5.18;4.22;;;14.10;99.90;;;;;;5002743;28;20560;-50
2023/05/10 11:43:38;;;;;;;6.82;5.18;;;14.10;99.90;;;;;;5002135;28;20065;-49
2023/05/10 11:46:07;;;;;;;6.55;4.22;;;14.10;99.90;;;;;;5002530;28;20042;-48
2023/05/10 11:48:33;;;;;;;6.45;4.90;;;14.40;99.90;;;;;;5002551;28;20034;-52
2023/05/10 11:51:00;;;;;;;8.25;5.10;;;14.10;99.90;;;;;;5002846;28;20392;-51
2023/05/10 11:53:27;;;;;;;7.65;4.85;;;14.10;99.90;;;;;;5003360;28;20038;-50
2023/05/10 11:55:52;;;;;;;7.07;4.90;;;14.10;99.90;;;;;;5000171;28;20104;-49
2023/05/10 11:58:19;;;;;;;8.65;4.93;;;14.10;99.90;;;;;;5003098;28;20122;-52
2023/05/10 12:00:46;;;;;;;7.68;4.88;;;14.20;99.90;;;;;;5002671;28;20030;-51
2023/05/10 12:03:11;;;;;;;7.25;4.85;;;14.10;99.90;;;;;;5004632;28;20403;-51
2023/05/10 12:05:37;;;;;;;6.07;4.85;;;14.10;99.90;;;;;;5013472;28;20042;-52
2023/05/10 12:08:13;;;;;;;8.07;5.07;;;14.10;99.90;;;;;;5013436;28;20034;-52
2023/05/10 12:10:39;;;;;;;8.77;5.68;;;14.10;99.90;;;;;;5013466;28;20396;-50
2023/05/10 12:13:06;;;;;;;6.28;4.72;;;14.20;99.90;;;;;;5013292;28;20052;-51
2023/05/10 12:15:32;;;;;;;6.57;4.75;;;14.20;99.90;;;;;;5013680;28;20058;-52
2023/05/10 12:17:58;;;;;;;7.05;4.30;;;14.20;99.90;;;;;;5005903;28;20050;-51
2023/05/10 12:20:27;;;;;;;7.63;5.07;;;14.20;99.90;;;;;;4993829;28;20403;-52
2023/05/10 12:22:55;;;;;;;6.55;4.50;;;14.30;99.90;;;;;;4994157;28;20047;-52
2023/05/10 12:25:22;;;;;;;6.85;4.70;;;14.30;99.90;;;;;;4993166;28;20062;-52
2023/05/10 12:27:52;;;;;;;7.65;4.07;;;14.30;99.90;;;;;;4993483;28;20061;-52
2023/05/10 12:30:25;;;;;;;9.57;4.13;;;14.30;99.90;;;;;;4993545;28;20088;-52
2023/05/10 12:32:51;;;;;;;8.52;4.20;;;14.30;99.90;;;;;;4993938;28;20042;-51
2023/05/10 12:35:20;;;;;;;6.32;4.13;;;14.50;99.90;;;;;;4993442;28;20096;-50
2023/05/10 12:37:46;;;;;;;6.82;5.10;;;14.20;99.90;;;;;;4993324;28;20050;-49
2023/05/10 12:40:12;;;;;;;6.03;4.03;;;14.20;99.90;;;;;;4993577;28;20096;-52
2023/05/10 12:42:39;;;;;;;5.85;4.43;;;14.10;99.90;;;;;;4993607;28;20050;-48
2023/05/10 12:45:06;;;;;;;6.78;4.78;;;14.10;99.90;;;;;;4993232;28;20057;-50
2023/05/10 12:47:32;;;;;;;6.63;4.03;;;14.10;99.90;;;;;;4993365;28;20118;-52
2023/05/10 12:50:00;;;;;;;5.93;3.65;;;14.10;99.90;;;;;;4993446;28;20038;-51
2023/05/10 12:52:26;;;;;;;6.20;3.83;;;14.00;99.90;;;;;;4993241;28;20074;-49